Time;durP1;ratioP1;P1;durP2;ratioP2;P2;SDS_P1;SDS_P2;PMS_P1;PMS_P2;Temp;Humidity;BMP_temperature;BMP_pressure;BME280_temperature;BME280_humidity;BME280_pressure;Samples;Min_cycle;Max_cycle;Signal;HPM_P1;HPM_P2
2020/12/01 00:00:47;;;;;;;4.35;0.60;;;;;;;7.77;71.26;101206.75;3574670;40;20101;-78
2020/12/01 00:03:13;;;;;;;2.05;0.40;;;;;;;7.75;70.63;101206.13;3590513;40;20129;-78
2020/12/01 00:05:38;;;;;;;3.47;0.40;;;;;;;7.76;71.02;101231.50;3676412;32;20113;-78
2020/12/01 00:08:04;;;;;;;4.00;0.57;;;;;;;7.68;69.79;101232.59;3583123;40;20172;-79
2020/12/01 00:10:35;;;;;;;7.85;0.43;;;;;;;7.56;70.51;101220.81;3587944;40;20105;-78
2020/12/01 00:13:02;;;;;;;4.95;0.85;;;;;;;7.56;70.42;101231.72;3593058;40;20109;-78
2020/12/01 00:15:30;;;;;;;1.23;0.50;;;;;;;7.45;70.22;101228.69;3658822;32;20109;-78
2020/12/01 00:17:56;;;;;;;4.07;0.22;;;;;;;7.35;71.50;101228.38;3583273;40;20120;-79
2020/12/01 00:20:23;;;;;;;4.63;0.77;;;;;;;7.36;71.17;101224.59;3587930;40;20097;-78
2020/12/01 00:22:49;;;;;;;3.00;0.77;;;;;;;7.33;71.45;101227.78;3596098;39;20114;-78
2020/12/01 00:25:16;;;;;;;1.77;0.68;;;;;;;7.31;71.82;101229.88;3575953;40;20102;-77
2020/12/01 00:27:43;;;;;;;2.28;0.57;;;;;;;7.29;71.10;101227.38;3630468;32;20149;-79
2020/12/01 00:30:21;;;;;;;1.20;0.30;;;;;;;7.26;71.55;101227.00;3650001;32;20128;-78
2020/12/01 00:32:47;;;;;;;2.55;0.38;;;;;;;7.21;71.17;101226.84;3592300;40;20112;-81
2020/12/01 00:35:16;;;;;;;3.20;0.40;;;;;;;7.20;71.28;101231.44;3583009;40;20105;-78
2020/12/01 00:37:42;;;;;;;0.28;0.13;;;;;;;7.21;71.53;101232.28;3593731;32;20118;-78
2020/12/01 00:40:09;;;;;;;2.97;0.50;;;;;;;7.17;71.44;101226.47;3574267;40;20118;-78
2020/12/01 00:42:35;;;;;;;5.30;0.50;;;;;;;7.16;71.62;101222.88;3601887;32;20106;-78
2020/12/01 00:45:01;;;;;;;6.80;1.67;;;;;;;7.12;71.59;101216.22;3582033;40;20199;-80
2020/12/01 00:47:26;;;;;;;6.70;0.50;;;;;;;7.20;71.35;101219.72;3579065;40;20169;-78
2020/12/01 00:49:52;;;;;;;2.55;0.80;;;;;;;7.19;71.36;101226.22;3583637;40;20106;-78
2020/12/01 00:52:18;;;;;;;1.73;0.40;;;;;;;7.18;72.06;101222.66;3573093;40;20153;-77
2020/12/01 00:54:43;;;;;;;4.05;0.52;;;;;;;7.21;72.13;101221.38;3574251;40;20156;-75
2020/12/01 00:57:09;;;;;;;5.20;0.43;;;;;;;7.16;71.93;101224.78;3585267;40;20132;-76
2020/12/01 00:59:35;;;;;;;2.90;0.55;;;;;;;7.24;71.61;101231.81;3584206;40;20124;-77
2020/12/01 01:02:01;;;;;;;0.75;0.52;;;;;;;7.26;71.26;101235.16;3634500;32;20136;-78
2020/12/01 01:04:26;;;;;;;3.10;0.47;;;;;;;7.24;71.66;101242.69;3566392;40;20110;-80
2020/12/01 01:06:52;;;;;;;7.13;0.70;;;;;;;7.19;71.59;101245.28;3567914;40;20105;-78
2020/12/01 01:09:19;;;;;;;7.72;0.68;;;;;;;7.14;71.50;101244.06;3589472;40;20189;-78
2020/12/01 01:11:45;;;;;;;1.55;0.63;;;;;;;7.06;71.28;101244.31;3630473;32;20114;-80
2020/12/01 01:14:10;;;;;;;3.70;0.85;;;;;;;7.01;71.25;101243.31;3608130;32;20560;-78
2020/12/01 01:16:43;;;;;;;2.33;0.55;;;;;;;6.94;70.81;101243.41;3576351;40;20136;-79
2020/12/01 01:19:11;;;;;;;2.22;0.70;;;;;;;6.86;71.49;101246.38;3583647;40;20145;-77
2020/12/01 01:21:42;;;;;;;6.40;1.13;;;;;;;6.82;70.98;101257.69;3578631;40;20117;-76
2020/12/01 01:24:09;;;;;;;3.30;0.57;;;;;;;6.76;70.96;101247.72;3608949;32;20160;-77
2020/12/01 01:26:34;;;;;;;2.28;0.50;;;;;;;6.75;70.99;101248.75;3624421;32;20126;-76
2020/12/01 01:29:00;;;;;;;2.33;0.63;;;;;;;6.70;70.55;101254.03;3588520;40;20109;-75
2020/12/01 01:31:25;;;;;;;4.97;1.15;;;;;;;6.68;70.81;101250.69;3578940;40;20619;-75
2020/12/01 01:33:51;;;;;;;3.72;0.40;;;;;;;6.67;71.28;101254.44;3581495;40;20130;-77
2020/12/01 01:36:16;;;;;;;8.55;0.90;;;;;;;6.64;71.08;101254.88;3583922;40;20116;-75
2020/12/01 01:38:41;;;;;;;6.50;0.80;;;;;;;6.57;71.37;101248.66;3577665;40;20568;-73
2020/12/01 01:41:08;;;;;;;10.77;1.20;;;;;;;6.54;70.97;101249.97;3587332;40;20108;-78
2020/12/01 01:43:33;;;;;;;2.78;0.63;;;;;;;6.49;70.94;101255.19;3627416;32;20174;-74
2020/12/01 01:45:59;;;;;;;1.40;0.30;;;;;;;6.48;71.42;101256.25;3584654;40;20118;-76
2020/12/01 01:48:28;;;;;;;10.05;0.82;;;;;;;6.42;71.80;101254.41;3588526;40;20125;-74
2020/12/01 01:51:03;;;;;;;5.35;1.05;;;;;;;6.33;71.20;101247.56;3631744;32;20101;-76
2020/12/01 01:53:31;;;;;;;4.53;0.75;;;;;;;6.33;71.79;101256.53;3589521;40;20587;-76
2020/12/01 01:56:01;;;;;;;7.60;0.90;;;;;;;6.27;71.82;101244.66;3585073;40;20228;-74
2020/12/01 01:58:33;;;;;;;5.72;0.93;;;;;;;6.23;71.74;101248.03;3622462;32;20152;-75
2020/12/01 02:01:11;;;;;;;4.82;1.02;;;;;;;6.20;71.75;101260.16;3578778;40;20120;-75
2020/12/01 02:03:43;;;;;;;2.90;0.63;;;;;;;6.17;71.72;101260.59;3586926;40;20536;-75
2020/12/01 02:06:22;;;;;;;3.78;0.40;;;;;;;6.13;72.46;101262.06;3589666;32;20117;-75
2020/12/01 02:08:53;;;;;;;7.25;1.70;;;;;;;6.10;71.95;101266.06;3582245;40;20106;-75
2020/12/01 02:11:20;;;;;;;6.07;0.63;;;;;;;6.09;72.24;101271.72;3632315;32;20110;-75
2020/12/01 02:14:05;;;;;;;2.33;0.70;;;;;;;6.06;72.32;101272.97;3584035;40;20151;-74
2020/12/01 02:16:32;;;;;;;6.15;0.75;;;;;;;5.99;72.38;101269.47;3612020;32;20119;-74
2020/12/01 02:18:57;;;;;;;7.88;1.25;;;;;;;5.99;72.43;101283.03;3596258;32;20086;-75
2020/12/01 02:21:38;;;;;;;6.15;1.25;;;;;;;5.92;72.68;101279.47;3577477;40;20124;-74
2020/12/01 02:24:11;;;;;;;12.23;0.82;;;;;;;5.87;72.43;101280.13;3572366;40;20121;-75
2020/12/01 02:26:37;;;;;;;4.72;0.90;;;;;;;5.81;72.96;101280.13;3594138;32;20104;-75
2020/12/01 02:29:10;;;;;;;10.80;1.27;;;;;;;5.76;72.81;101287.03;3582151;40;20487;-78
2020/12/01 02:31:36;;;;;;;7.22;1.08;;;;;;;5.69;72.89;101286.19;3586844;40;20168;-78
2020/12/01 02:34:05;;;;;;;6.25;1.05;;;;;;;5.69;73.07;101279.94;3583181;40;20149;-77
2020/12/01 02:36:31;;;;;;;8.93;0.63;;;;;;;5.65;73.46;101279.56;3578136;40;20133;-78
2020/12/01 02:38:59;;;;;;;12.27;1.02;;;;;;;5.62;73.26;101273.72;3575232;40;20108;-77
2020/12/01 02:41:24;;;;;;;2.45;0.50;;;;;;;5.57;72.92;101279.78;3582805;32;20108;-78
2020/12/01 02:43:50;;;;;;;1.40;0.63;;;;;;;5.62;73.13;101279.94;3577018;40;20861;-75
2020/12/01 02:46:16;;;;;;;9.43;0.88;;;;;;;5.60;73.89;101287.47;3579497;40;20778;-76
2020/12/01 02:48:41;;;;;;;6.47;1.00;;;;;;;5.56;72.95;101288.94;3577799;40;20113;-76
2020/12/01 02:51:06;;;;;;;7.68;1.13;;;;;;;5.55;73.39;101285.41;3585399;40;20105;-75
2020/12/01 02:53:32;;;;;;;5.47;1.13;;;;;;;5.48;73.19;101283.75;3576386;40;20106;-75
2020/12/01 02:55:57;;;;;;;1.33;0.47;;;;;;;5.53;73.34;101286.66;3582350;40;20109;-76
2020/12/01 02:58:23;;;;;;;3.65;0.60;;;;;;;5.52;73.60;101293.13;3579903;40;20118;-76
2020/12/01 03:00:48;;;;;;;2.88;0.65;;;;;;;5.48;73.38;101291.91;3589452;40;20094;-76
2020/12/01 03:03:14;;;;;;;2.90;0.80;;;;;;;5.43;73.73;101292.50;3582981;40;20110;-75
2020/12/01 03:05:39;;;;;;;3.30;0.70;;;;;;;5.43;73.42;101295.22;3581353;40;20120;-78
2020/12/01 03:08:05;;;;;;;0.93;0.50;;;;;;;5.42;73.77;101299.00;3583885;40;20098;-76
2020/12/01 03:10:30;;;;;;;4.63;0.80;;;;;;;5.39;73.86;101297.53;3581542;40;20646;-76
2020/12/01 03:12:56;;;;;;;0.90;0.55;;;;;;;5.38;73.96;101314.03;3577641;40;20206;-75
2020/12/01 03:15:21;;;;;;;5.63;1.83;;;;;;;5.35;73.56;101309.84;3575828;40;20556;-77
2020/12/01 03:17:47;;;;;;;3.40;0.50;;;;;;;5.35;73.97;101306.31;3576116;40;20094;-77
2020/12/01 03:20:12;;;;;;;1.98;0.65;;;;;;;5.25;73.51;101306.72;3583251;40;20121;-76
2020/12/01 03:22:38;;;;;;;4.57;0.82;;;;;;;5.14;74.29;101293.78;3573261;40;20142;-76
2020/12/01 03:25:03;;;;;;;3.72;0.65;;;;;;;5.17;74.28;101320.47;3589985;40;20086;-76
2020/12/01 03:27:29;;;;;;;5.60;0.65;;;;;;;5.12;73.85;101312.16;3589550;40;20069;-77
2020/12/01 03:29:54;;;;;;;9.32;0.70;;;;;;;5.04;74.17;101314.03;3571854;40;20176;-76
2020/12/01 03:32:23;;;;;;;5.00;0.73;;;;;;;5.03;74.28;101316.94;3580801;40;20425;-76
2020/12/01 03:34:52;;;;;;;1.67;0.70;;;;;;;4.99;74.54;101313.78;3652161;32;20129;-77
2020/12/01 03:37:20;;;;;;;3.83;0.47;;;;;;;4.99;74.42;101316.50;3580483;40;20665;-78
2020/12/01 03:39:46;;;;;;;2.88;0.50;;;;;;;4.94;74.14;101308.19;3578625;40;20108;-77
2020/12/01 03:42:11;;;;;;;9.07;0.88;;;;;;;4.87;74.72;101304.63;3582697;40;20106;-76
2020/12/01 03:44:37;;;;;;;4.43;0.77;;;;;;;4.89;74.73;101314.22;3585794;40;20109;-77
2020/12/01 03:47:02;;;;;;;6.38;0.85;;;;;;;4.86;74.86;101313.78;3580428;40;20117;-77
2020/12/01 03:49:27;;;;;;;2.67;0.77;;;;;;;4.81;74.36;101306.28;3586810;40;20137;-77
2020/12/01 03:51:53;;;;;;;6.30;1.35;;;;;;;4.77;74.68;101315.03;3579952;40;20132;-75
2020/12/01 03:54:18;;;;;;;3.75;1.17;;;;;;;4.72;75.33;101297.50;3584292;39;20551;-76
2020/12/01 03:56:44;;;;;;;12.15;1.00;;;;;;;4.68;75.18;101298.94;3581852;40;20102;-76
2020/12/01 03:59:09;;;;;;;3.78;0.57;;;;;;;4.67;75.26;101305.44;3585687;40;20094;-78
2020/12/01 04:01:35;;;;;;;5.18;0.57;;;;;;;4.65;75.26;101302.06;3567299;40;20117;-75
2020/12/01 04:04:00;;;;;;;12.10;0.95;;;;;;;4.68;76.00;101311.69;3582692;40;20154;-74
2020/12/01 04:06:25;;;;;;;5.95;1.10;;;;;;;4.69;76.16;101308.75;3585404;40;20102;-74
2020/12/01 04:08:51;;;;;;;6.60;0.80;;;;;;;4.71;75.70;101305.84;3582328;40;20133;-75
2020/12/01 04:11:17;;;;;;;6.80;0.95;;;;;;;4.69;75.21;101295.22;3579029;40;20204;-74
2020/12/01 04:13:42;;;;;;;6.07;0.68;;;;;;;4.77;75.71;101310.44;3582832;40;20110;-74
2020/12/01 04:16:08;;;;;;;3.60;0.52;;;;;;;4.77;75.86;101315.03;3582734;40;20116;-74
2020/12/01 04:18:34;;;;;;;5.88;0.75;;;;;;;4.76;74.96;101306.06;3586092;40;20105;-73
2020/12/01 04:21:01;;;;;;;3.15;0.70;;;;;;;4.77;75.23;101320.44;3580546;40;20572;-74
2020/12/01 04:23:27;;;;;;;8.82;0.60;;;;;;;4.78;74.80;101319.41;3590134;32;20121;-74
2020/12/01 04:25:52;;;;;;;5.53;0.65;;;;;;;4.75;75.36;101323.38;3577166;40;20422;-73
2020/12/01 04:28:18;;;;;;;2.92;0.50;;;;;;;4.73;75.50;101322.72;3578791;40;20101;-73
2020/12/01 04:30:43;;;;;;;1.17;0.40;;;;;;;4.68;75.73;101314.38;3570562;40;20121;-72
2020/12/01 04:33:09;;;;;;;5.13;1.23;;;;;;;4.65;75.80;101312.91;3583017;40;20123;-72
2020/12/01 04:35:36;;;;;;;3.58;0.50;;;;;;;4.64;75.24;101316.66;3563100;32;20125;-73
2020/12/01 04:38:06;;;;;;;0.55;0.30;;;;;;;4.68;75.64;101330.63;3604769;32;20105;-72
2020/12/01 04:40:35;;;;;;;5.95;1.27;;;;;;;4.66;75.78;101330.03;3577428;40;20177;-74
2020/12/01 04:43:26;;;;;;;2.30;0.75;;;;;;;4.64;75.04;101327.50;3580217;32;20140;-77
2020/12/01 04:45:52;;;;;;;4.93;0.85;;;;;;;4.59;75.81;101324.56;3582603;40;20198;-74
2020/12/01 04:48:56;;;;;;;1.80;0.43;;;;;;;4.61;75.36;101325.19;3576718;40;20105;-75
2020/12/01 04:52:30;;;;;;;;;;;;;;;;;;;;;
2020/12/01 05:02:43;;;;;;;1.58;0.30;;;;;;;4.44;75.54;101332.88;3592029;32;20167;-75
2020/12/01 05:09:33;;;;;;;6.32;0.45;;;;;;;4.34;76.63;101338.66;3611006;32;20240;-76
2020/12/01 05:12:01;;;;;;;8.38;1.23;;;;;;;4.24;76.82;101329.25;3538156;40;20106;-78
2020/12/01 05:14:58;;;;;;;5.28;0.95;;;;;;;4.36;76.86;101344.69;3572962;40;20474;-75
2020/12/01 05:17:45;;;;;;;4.05;0.63;;;;;;;4.37;76.67;101349.09;3577833;40;20121;-76
2020/12/01 05:20:14;;;;;;;5.00;1.20;;;;;;;4.34;76.26;101354.09;3595183;32;20137;-76
2020/12/01 05:22:47;;;;;;;4.47;0.60;;;;;;;4.29;76.38;101351.13;3609551;32;20097;-78
2020/12/01 05:25:31;;;;;;;3.05;0.70;;;;;;;4.39;76.50;101361.59;3633030;32;20114;-78
2020/12/01 05:28:05;;;;;;;2.50;0.70;;;;;;;4.34;76.10;101359.50;3584228;40;20112;-76
2020/12/01 05:30:30;;;;;;;5.57;0.70;;;;;;;4.27;75.95;101354.03;3621196;32;20410;-76
2020/12/01 05:33:17;;;;;;;5.00;0.85;;;;;;;4.35;75.89;101377.41;3582885;40;20112;-76
2020/12/01 05:35:43;;;;;;;2.80;0.45;;;;;;;4.30;76.04;101369.88;3585910;32;20110;-75
2020/12/01 05:38:12;;;;;;;2.80;0.80;;;;;;;4.33;76.21;101364.06;3584088;40;20094;-76
2020/12/01 05:40:37;;;;;;;2.20;0.50;;;;;;;4.30;76.79;101372.59;3581993;32;20611;-75
2020/12/01 05:43:03;;;;;;;0.47;0.17;;;;;;;4.32;76.61;101378.66;3579084;40;20482;-74
2020/12/01 05:45:35;;;;;;;1.95;0.43;;;;;;;4.35;75.98;101378.25;3583062;40;20171;-73
2020/12/01 05:48:35;;;;;;;9.65;0.90;;;;;;;4.31;75.75;101368.03;3589375;32;20244;-75
2020/12/01 05:51:11;;;;;;;1.83;0.45;;;;;;;4.39;76.47;101380.56;3578497;32;20208;-75
2020/12/01 05:53:36;;;;;;;2.50;0.70;;;;;;;4.31;76.04;101359.91;3584758;40;20121;-73
2020/12/01 05:56:14;;;;;;;3.85;0.65;;;;;;;4.39;76.26;101377.84;3585416;40;20487;-73
2020/12/01 05:58:47;;;;;;;0.57;0.30;;;;;;;4.32;76.04;101359.69;3584024;40;20217;-74
2020/12/01 06:01:13;;;;;;;3.60;0.73;;;;;;;4.34;76.12;101376.56;3580837;40;20864;-74
2020/12/01 06:04:27;;;;;;;2.33;0.40;;;;;;;4.31;75.57;101371.56;3580775;40;20117;-74
2020/12/01 06:07:00;;;;;;;3.97;0.65;;;;;;;4.29;75.62;101373.66;3641561;32;20124;-74
2020/12/01 06:09:51;;;;;;;3.80;0.50;;;;;;;4.27;76.60;101375.69;3584740;40;20094;-75
2020/12/01 06:12:29;;;;;;;5.13;0.70;;;;;;;4.17;76.35;101364.41;3577831;40;20105;-74
2020/12/01 06:15:17;;;;;;;1.77;0.30;;;;;;;4.23;76.42;101374.44;3621370;32;20121;-75
2020/12/01 06:17:50;;;;;;;3.88;0.57;;;;;;;4.22;76.50;101378.19;3584233;40;20121;-75
2020/12/01 06:20:31;;;;;;;7.03;0.98;;;;;;;4.24;76.09;101389.66;3580190;40;20116;-75
2020/12/01 06:24:00;;;;;;;1.25;0.28;;;;;;;4.21;76.07;101384.63;3650934;32;20538;-74
2020/12/01 06:26:45;;;;;;;12.48;0.90;;;;;;;4.20;76.65;101391.06;3747821;32;20118;-74
2020/12/01 06:29:58;;;;;;;2.15;0.55;;;;;;;4.17;75.59;101407.72;3649811;32;20109;-75
2020/12/01 06:32:56;;;;;;;8.80;1.08;;;;;;;4.06;75.49;101401.00;3597945;40;20109;-74
2020/12/01 06:36:02;;;;;;;5.63;0.80;;;;;;;4.04;75.68;101407.66;3648933;32;20125;-75
2020/12/01 06:39:20;;;;;;;4.28;0.70;;;;;;;3.93;76.49;101409.88;3589048;40;20109;-75
2020/12/01 06:48:22;;;;;;;1.58;0.30;;;;;;;3.63;76.28;101393.00;2999321;30;20153;-75
2020/12/01 06:50:53;;;;;;;5.23;0.83;;;;;;;3.66;77.11;101406.97;3618241;32;20239;-77
2020/12/01 06:53:26;;;;;;;2.40;0.40;;;;;;;3.65;77.31;101402.59;3597221;32;20237;-76
2020/12/01 06:56:13;;;;;;;1.65;0.57;;;;;;;3.58;76.69;101390.06;3646667;32;20576;-76
2020/12/01 06:58:43;;;;;;;7.15;0.77;;;;;;;3.64;76.93;101414.44;3565973;40;20105;-78
2020/12/01 07:01:18;;;;;;;3.38;0.70;;;;;;;3.65;78.16;101417.97;3551303;40;20106;-77
2020/12/01 07:04:02;;;;;;;3.78;0.65;;;;;;;3.57;77.72;101407.31;3617975;32;20113;-77
2020/12/01 07:06:27;;;;;;;1.23;0.40;;;;;;;3.65;77.46;101421.53;3610585;32;20111;-78
2020/12/01 07:09:15;;;;;;;6.30;0.40;;;;;;;3.59;77.69;101407.94;3561103;40;20098;-77
2020/12/01 07:11:59;;;;;;;4.93;0.80;;;;;;;3.67;77.68;101422.16;3569920;40;20544;-77
2020/12/01 07:14:45;;;;;;;3.78;0.90;;;;;;;3.71;77.03;101425.31;3611165;32;20103;-78
2020/12/01 07:17:20;;;;;;;0.52;0.32;;;;;;;3.79;77.78;101427.03;3576629;32;20136;-75
2020/12/01 07:20:18;;;;;;;2.83;0.55;;;;;;;3.77;76.85;101429.13;3553848;32;20117;-73
2020/12/01 07:22:54;;;;;;;4.53;0.63;;;;;;;3.78;77.35;101420.81;3549315;40;20516;-75
2020/12/01 07:25:30;;;;;;;5.25;0.45;;;;;;;3.91;76.79;101433.56;3569831;32;20133;-75
2020/12/01 07:28:14;;;;;;;1.17;0.50;;;;;;;3.90;76.86;101434.63;3554025;40;20156;-73
2020/12/01 07:30:57;;;;;;;2.83;0.73;;;;;;;3.92;77.31;101448.78;3562556;40;20340;-75
2020/12/01 07:33:32;;;;;;;1.83;0.40;;;;;;;3.91;76.31;101451.69;3556494;40;20098;-74
2020/12/01 07:36:32;;;;;;;7.80;0.90;;;;;;;3.89;76.87;101446.47;3577553;32;20114;-74
2020/12/01 07:39:27;;;;;;;2.25;0.55;;;;;;;3.87;76.53;101453.09;3589010;32;20120;-75
2020/12/01 07:42:01;;;;;;;8.73;0.60;;;;;;;3.85;76.74;101447.91;3567639;32;20110;-75
2020/12/01 07:44:39;;;;;;;1.75;0.30;;;;;;;3.88;77.23;101458.31;3556965;40;20146;-75
2020/12/01 07:47:14;;;;;;;0.70;0.22;;;;;;;3.91;76.54;101459.81;3566559;40;20119;-75
2020/12/01 07:49:40;;;;;;;1.45;0.47;;;;;;;3.92;76.29;101454.19;3588728;32;20487;-78
2020/12/01 07:52:14;;;;;;;2.22;0.52;;;;;;;3.99;77.02;101462.38;3574802;40;20124;-74
2020/12/01 07:54:42;;;;;;;4.93;0.40;;;;;;;4.00;76.28;101462.19;3645862;32;20133;-72
2020/12/01 07:57:19;;;;;;;7.40;0.63;;;;;;;4.01;76.84;101468.41;3568976;40;20113;-73
2020/12/01 07:59:47;;;;;;;2.85;1.08;;;;;;;3.99;75.75;101457.78;3579372;32;20153;-71
2020/12/01 08:02:14;;;;;;;3.58;0.50;;;;;;;4.00;76.48;101461.31;3560621;32;20142;-70
2020/12/01 08:04:40;;;;;;;4.22;0.50;;;;;;;3.98;76.56;101464.22;3570612;40;20165;-70
2020/12/01 08:07:06;;;;;;;13.63;1.17;;;;;;;3.98;76.37;101480.47;3558090;40;20129;-69
2020/12/01 08:09:32;;;;;;;1.17;0.40;;;;;;;4.00;76.52;101478.41;3557127;40;20109;-72
2020/12/01 08:12:05;;;;;;;2.63;0.30;;;;;;;4.04;75.96;101489.69;3561608;40;20168;-73
2020/12/01 08:14:31;;;;;;;3.47;0.38;;;;;;;4.06;75.54;101486.78;3574947;32;20172;-73
2020/12/01 08:17:12;;;;;;;2.20;0.57;;;;;;;4.08;76.38;101490.97;3569519;40;20433;-73
2020/12/01 08:19:38;;;;;;;4.88;0.45;;;;;;;4.12;75.79;101492.25;3587422;32;20504;-70
2020/12/01 08:22:06;;;;;;;1.67;0.25;;;;;;;4.11;76.16;101484.31;3560193;40;20188;-72
2020/12/01 08:24:37;;;;;;;1.20;0.13;;;;;;;4.14;75.69;101500.16;3579256;32;20117;-71
2020/12/01 08:27:20;;;;;;;0.50;0.45;;;;;;;4.14;76.06;101500.16;3560042;40;20599;-71
2020/12/01 08:29:48;;;;;;;2.03;0.57;;;;;;;4.10;75.83;101501.59;3562881;32;20171;-71
2020/12/01 08:32:35;;;;;;;0.20;0.10;;;;;;;4.11;75.94;101506.81;3565054;32;20136;-71
2020/12/01 08:35:12;;;;;;;1.95;0.40;;;;;;;4.12;75.64;101507.66;3566129;40;20178;-70
2020/12/01 08:38:21;;;;;;;0.65;0.28;;;;;;;4.11;75.89;101512.22;3560662;40;20145;-71
2020/12/01 08:41:21;;;;;;;2.38;0.50;;;;;;;4.13;75.83;101514.72;3574412;32;20117;-71
2020/12/01 08:43:50;;;;;;;1.65;0.28;;;;;;;4.13;75.33;101509.31;3567399;32;20106;-71
2020/12/01 08:46:24;;;;;;;5.18;0.73;;;;;;;4.13;75.33;101509.31;3572918;40;20991;-71
2020/12/01 08:49:06;;;;;;;0.65;0.30;;;;;;;4.15;75.13;101509.97;3576885;32;20655;-71
2020/12/01 08:51:55;;;;;;;0.63;0.17;;;;;;;4.18;75.15;101505.00;3570281;40;20113;-72
2020/12/01 08:54:24;;;;;;;0.22;0.20;;;;;;;4.30;75.17;101509.88;3581261;32;20114;-71
2020/12/01 08:56:58;;;;;;;0.70;0.20;;;;;;;4.40;75.23;101509.53;3561350;40;20164;-71
2020/12/01 08:59:29;;;;;;;0.65;0.30;;;;;;;4.54;75.17;101512.09;3565057;40;20117;-72
2020/12/01 09:02:00;;;;;;;2.08;0.32;;;;;;;4.69;74.63;101514.69;3568782;40;20125;-71
2020/12/01 09:04:29;;;;;;;0.17;0.10;;;;;;;4.93;74.94;101514.38;3570297;40;20128;-72
2020/12/01 09:07:18;;;;;;;0.85;0.52;;;;;;;5.24;74.90;101530.13;3559391;40;20637;-71
2020/12/01 09:09:44;;;;;;;0.15;0.03;;;;;;;5.53;74.56;101525.44;3566443;40;20249;-71
2020/12/01 09:17:42;;;;;;;2.42;0.10;;;;;;;6.17;73.03;101534.91;3571378;40;20102;-72
2020/12/01 09:22:50;;;;;;;3.45;0.80;;;;;;;6.51;71.88;101532.16;3567775;40;20110;-71
2020/12/01 09:25:23;;;;;;;0.80;0.32;;;;;;;6.60;70.49;101547.19;3562353;40;20121;-70
2020/12/01 09:27:50;;;;;;;0.57;0.30;;;;;;;6.75;70.57;101533.38;3595261;32;20126;-71
2020/12/01 09:30:35;;;;;;;0.50;0.20;;;;;;;6.93;70.43;101532.69;3566615;40;20112;-71
2020/12/01 09:33:01;;;;;;;0.98;0.20;;;;;;;7.05;69.26;101539.09;3560504;32;20125;-71
2020/12/01 09:35:27;;;;;;;3.38;0.65;;;;;;;7.26;69.28;101539.88;3568817;40;20134;-71
2020/12/01 09:37:53;;;;;;;0.47;0.30;;;;;;;7.54;68.50;101527.81;3567200;32;20537;-73
2020/12/01 09:40:19;;;;;;;3.78;0.30;;;;;;;7.76;66.67;101529.09;3569506;40;20122;-71
2020/12/01 09:42:49;;;;;;;1.38;0.50;;;;;;;7.91;67.48;101530.69;3570321;32;20248;-71
2020/12/01 09:47:51;;;;;;;3.60;0.60;;;;;;;7.98;66.70;101534.19;3579448;32;21283;-72
2020/12/01 09:50:34;;;;;;;2.13;0.47;;;;;;;7.89;66.07;101540.97;3562749;40;20129;-71
2020/12/01 09:58:39;;;;;;;4.78;0.70;;;;;;;7.76;65.36;101545.44;3574722;32;20129;-70
2020/12/01 10:09:07;;;;;;;5.50;0.30;;;;;;;7.38;66.41;101549.00;3577628;32;20104;-71
2020/12/01 10:35:33;;;;;;;1.50;0.40;;;;;;;17.89;48.14;101554.97;3590637;32;20135;-71
2020/12/01 10:38:02;;;;;;;0.90;0.60;;;;;;;18.37;46.28;101547.94;3563824;40;20129;-72
2020/12/01 10:40:28;;;;;;;0.63;0.38;;;;;;;18.82;46.05;101554.13;3575671;32;20121;-70
2020/12/01 10:42:55;;;;;;;1.20;0.43;;;;;;;19.27;44.36;101549.16;3574787;32;20087;-72
2020/12/01 10:45:22;;;;;;;1.02;0.30;;;;;;;19.69;42.96;101550.22;3571799;40;20472;-69
2020/12/01 10:47:48;;;;;;;0.68;0.47;;;;;;;20.04;42.50;101545.28;3586799;32;20149;-69
2020/12/01 10:50:15;;;;;;;0.77;0.60;;;;;;;20.53;42.28;101545.81;3569414;40;20205;-70
2020/12/01 10:52:41;;;;;;;3.15;0.60;;;;;;;20.83;40.59;101542.78;3562265;40;20472;-71
2020/12/01 10:55:07;;;;;;;1.50;0.38;;;;;;;21.11;39.89;101565.84;3573100;40;20118;-70
2020/12/01 10:57:35;;;;;;;1.10;0.40;;;;;;;21.59;39.60;101556.22;3577145;32;20483;-70
2020/12/01 11:00:03;;;;;;;4.22;0.30;;;;;;;22.17;38.10;101548.16;3581891;32;20118;-70
2020/12/01 11:02:28;;;;;;;1.55;0.68;;;;;;;22.72;37.05;101553.41;3562253;40;20102;-71
2020/12/01 11:04:54;;;;;;;2.50;0.45;;;;;;;23.23;36.40;101558.66;3563944;40;20144;-72
2020/12/01 11:07:19;;;;;;;1.40;0.47;;;;;;;23.58;35.16;101561.50;3568632;40;20109;-70
2020/12/01 11:09:44;;;;;;;1.45;0.77;;;;;;;23.36;32.77;101552.13;3566630;40;20129;-72
2020/12/01 11:12:10;;;;;;;3.22;0.52;;;;;;;23.33;33.11;101552.75;3575844;40;20176;-71
2020/12/01 11:14:35;;;;;;;0.80;0.50;;;;;;;23.38;33.08;101549.00;3559962;40;20117;-71
2020/12/01 11:17:01;;;;;;;1.77;0.50;;;;;;;23.08;33.00;101543.16;3569627;40;20130;-71
2020/12/01 11:19:26;;;;;;;3.65;0.47;;;;;;;23.20;34.14;101537.00;3563737;40;20141;-71
2020/12/01 11:21:51;;;;;;;2.67;1.00;;;;;;;23.66;34.01;101541.16;3568513;40;20102;-73
2020/12/01 11:24:17;;;;;;;2.03;1.83;;;;;;;23.90;32.91;101545.44;3570373;40;20120;-70
2020/12/01 11:26:42;;;;;;;2.92;2.72;;;;;;;24.17;31.53;101547.88;3574976;40;20102;-71
2020/12/01 11:29:08;;;;;;;2.08;1.98;;;;;;;24.24;32.21;101541.78;3562104;40;20118;-71
2020/12/01 11:31:35;;;;;;;3.10;1.92;;;;;;;24.17;31.63;101547.88;3572613;40;20104;-71
2020/12/01 11:34:06;;;;;;;1.02;0.90;;;;;;;24.15;31.48;101543.75;3563097;32;20087;-71
2020/12/01 11:36:33;;;;;;;2.67;0.98;;;;;;;24.43;32.49;101541.41;3560953;40;20117;-71
2020/12/01 11:38:58;;;;;;;1.23;0.70;;;;;;;24.78;30.68;101548.84;3577152;32;20141;-71
2020/12/01 11:41:25;;;;;;;1.65;0.50;;;;;;;25.22;30.45;101544.66;3573730;40;20118;-72
2020/12/01 11:43:51;;;;;;;0.43;0.40;;;;;;;25.59;29.56;101550.50;3566048;40;20128;-71
2020/12/01 11:46:16;;;;;;;4.38;0.40;;;;;;;26.00;29.58;101548.06;3562042;40;20617;-71
2020/12/01 11:48:42;;;;;;;2.10;0.38;;;;;;;26.45;28.62;101564.06;3572722;40;20149;-71
2020/12/01 11:51:09;;;;;;;0.40;0.38;;;;;;;26.76;28.42;101553.50;3566482;32;20140;-71
2020/12/01 11:53:34;;;;;;;2.08;0.20;;;;;;;26.93;28.32;101555.28;3572815;40;20137;-71
2020/12/01 11:56:00;;;;;;;0.38;0.13;;;;;;;26.63;27.55;101564.69;3559122;40;20154;-72
2020/12/01 11:58:25;;;;;;;0.65;0.30;;;;;;;26.10;26.74;101553.22;3570473;40;20467;-73
2020/12/01 12:00:51;;;;;;;0.20;0.20;;;;;;;25.82;27.69;101552.97;3560524;40;20152;-74
2020/12/01 12:03:16;;;;;;;0.47;0.30;;;;;;;25.64;27.01;101551.47;3567302;40;20195;-71
2020/12/01 12:05:41;;;;;;;1.65;0.50;;;;;;;25.87;27.86;101541.53;3553916;40;20113;-73
2020/12/01 12:08:07;;;;;;;0.28;0.28;;;;;;;26.45;27.73;101552.03;3572218;40;20121;-72
2020/12/01 12:10:32;;;;;;;0.75;0.55;;;;;;;26.88;27.21;101549.88;3555281;40;20575;-72
2020/12/01 12:12:58;;;;;;;0.90;0.43;;;;;;;27.15;26.48;101545.56;3572819;40;20618;-73
2020/12/01 12:15:23;;;;;;;0.52;0.35;;;;;;;27.45;26.87;101540.50;3574778;40;20113;-73
2020/12/01 12:17:48;;;;;;;0.85;0.40;;;;;;;27.84;26.57;101542.81;3574237;40;20117;-72
2020/12/01 12:20:14;;;;;;;0.98;0.77;;;;;;;27.79;24.87;101532.66;3554953;40;20144;-72
2020/12/01 12:22:40;;;;;;;0.70;0.50;;;;;;;27.48;25.96;101536.16;3564082;40;20110;-72
2020/12/01 12:25:05;;;;;;;0.70;0.40;;;;;;;27.55;25.43;101536.34;3573479;40;20117;-72
2020/12/01 12:27:32;;;;;;;0.60;0.52;;;;;;;27.83;24.70;101535.56;3574810;40;20122;-73
2020/12/01 12:29:59;;;;;;;0.50;0.20;;;;;;;28.13;25.37;101543.66;3579311;32;20121;-72
2020/12/01 12:32:25;;;;;;;0.50;0.30;;;;;;;28.39;24.28;101537.53;3572216;40;20125;-72
2020/12/01 12:34:51;;;;;;;0.75;0.28;;;;;;;28.62;25.06;101534.94;3569738;40;20486;-72
2020/12/01 12:37:16;;;;;;;1.02;0.30;;;;;;;28.69;24.57;101532.31;3564531;40;20110;-74
2020/12/01 12:39:42;;;;;;;0.50;0.20;;;;;;;28.33;24.01;101536.97;3562926;32;20113;-72
2020/12/01 12:42:07;;;;;;;1.50;0.63;;;;;;;27.38;24.06;101525.41;3564372;40;20175;-73
2020/12/01 12:44:33;;;;;;;0.98;0.28;;;;;;;25.86;24.81;101513.88;3562892;40;20130;-73
2020/12/01 12:46:58;;;;;;;1.90;0.30;;;;;;;24.25;25.09;101531.41;3574515;40;20166;-73
2020/12/01 12:49:24;;;;;;;0.55;0.30;;;;;;;22.61;26.82;101522.19;3569746;40;20167;-73
2020/12/01 12:51:49;;;;;;;0.50;0.22;;;;;;;21.62;28.69;101513.81;3572267;40;20206;-72
2020/12/01 12:54:14;;;;;;;0.20;0.10;;;;;;;20.99;29.54;101499.63;3567659;40;20270;-72
2020/12/01 12:56:40;;;;;;;0.57;0.40;;;;;;;20.58;30.17;101503.22;3566857;40;20199;-70